Terminal Aerodrome Forecast
Issued by NWS

Home | Current Version | Previous Version | Text Only | Print | Product List | Glossary On
Versions: 1 2 3 4 5 6 7 8 9 10 11 12 13 14 15 16 17 18 19 20
000
FTUS43 KMQT 261738
TAFCMX
TAF
KCMX 261738Z 2618/2718 34003KT 2SM BR VCSH OVC002
     FM261900 34004KT 2SM BR VCSH OVC003
     FM262300 29009KT P6SM OVC008
     FM270200 28011KT 1 1/2SM BR VCSH OVC008
     FM270500 28016KT P6SM OVC008
     FM271100 30014G22KT P6SM BKN015
     FM271600 31014KT P6SM BKN020=

USA.gov is the U.S. government's official web portal to all federal, state and local government web resources and services.